Terminal Aerodrome Forecast
Issued by NWS Spokane, WA

Home | Current Version | Previous Version | Text Only | Print | Product List | Glossary On
Versions: 1 2 3 4 5 6 7 8 9 10 11 12 13 14 15 16 17 18 19
000
FTUS46 KOTX 200520
TAFGEG
TAF
KGEG 200520Z 2006/2106 25015G20KT P6SM BKN090
     FM201100 22011KT P6SM FEW090
     FM202000 22010G15KT P6SM SCT050 BKN090
     FM210300 15005KT P6SM SCT080 BKN120 BKN200=

USA.gov is the U.S. government's official web portal to all federal, state and local government web resources and services.